Time;durP1;ratioP1;P1;durP2;ratioP2;P2;SDS_P1;SDS_P2;PMS_P1;PMS_P2;Temp;Humidity;BMP_temperature;BMP_pressure;BME280_temperature;BME280_humidity;BME280_pressure;Samples;Min_cycle;Max_cycle;Signal;HPM_P1;HPM_P2
2024/01/08 00:00:21;;;;;;;40.97;13.03;;;-6.10;29.20;;;;;;10436645;28;20220;-81
2024/01/08 00:05:43;;;;;;;50.63;13.13;;;-6.10;17.30;;;;;;10436496;28;20200;-80
2024/01/08 00:11:04;;;;;;;24.10;9.57;;;-6.10;1.00;;;;;;10436580;28;20192;-82
2024/01/08 00:16:26;;;;;;;29.83;9.83;;;-6.20;25.00;;;;;;10418502;28;20220;-80
2024/01/08 00:21:47;;;;;;;36.90;11.60;;;-6.20;75.10;;;;;;10395384;28;20196;-80
2024/01/08 00:27:08;;;;;;;32.97;11.00;;;-6.10;7.80;;;;;;10381062;28;20393;-80
2024/01/08 00:32:30;;;;;;;29.97;9.73;;;-6.10;74.70;;;;;;10394818;28;20483;-80
2024/01/08 00:37:51;;;;;;;18.17;8.90;;;-6.10;39.80;;;;;;10398401;28;20395;-80
2024/01/08 00:43:12;;;;;;;21.27;9.43;;;-6.20;31.00;;;;;;10421635;28;20197;-81
2024/01/08 00:48:34;;;;;;;25.57;11.03;;;-6.30;8.30;;;;;;10405938;28;20502;-80
2024/01/08 00:53:56;;;;;;;21.37;9.43;;;-6.30;97.20;;;;;;10403739;28;20256;-80
2024/01/08 00:59:17;;;;;;;18.23;8.60;;;-6.20;72.40;;;;;;10408194;28;20478;-79
2024/01/08 01:04:39;;;;;;;17.77;7.70;;;-6.20;89.10;;;;;;10408793;28;20270;-80
2024/01/08 01:10:00;;;;;;;18.40;8.53;;;-6.10;21.10;;;;;;10403658;28;20200;-80
2024/01/08 01:15:21;;;;;;;57.73;23.43;;;-6.10;74.20;;;;;;10405595;28;20204;-80
2024/01/08 01:20:43;;;;;;;91.60;24.70;;;-6.00;1.00;;;;;;10435650;28;20203;-81
2024/01/08 01:26:04;;;;;;;36.57;12.67;;;-6.10;1.00;;;;;;10443698;28;20262;-80
2024/01/08 01:31:25;;;;;;;49.83;14.50;;;-6.20;1.00;;;;;;10428514;28;20555;-80
2024/01/08 01:36:48;;;;;;;37.50;12.03;;;-6.20;33.20;;;;;;10442232;28;20258;-80
2024/01/08 01:42:10;;;;;;;22.43;11.50;;;-6.20;1.00;;;;;;10415250;28;20197;-80
2024/01/08 01:47:32;;;;;;;28.40;12.13;;;-6.30;1.00;;;;;;10410164;28;20277;-80
2024/01/08 01:52:53;;;;;;;21.77;9.93;;;-6.40;32.90;;;;;;10440973;28;20204;-80
2024/01/08 01:58:15;;;;;;;20.13;9.33;;;-6.50;1.00;;;;;;10427519;28;20226;-81
2024/01/08 02:03:37;;;;;;;19.13;9.17;;;-6.50;32.60;;;;;;10427580;28;20227;-83
2024/01/08 02:08:58;;;;;;;17.60;8.60;;;-6.50;48.50;;;;;;10427115;28;20200;-81
2024/01/08 02:14:19;;;;;;;15.33;7.83;;;-6.50;18.30;;;;;;10425618;28;20490;-82
2024/01/08 02:19:41;;;;;;;13.93;8.13;;;-6.60;90.90;;;;;;10424012;28;20237;-83
2024/01/08 02:25:02;;;;;;;15.63;7.63;;;-6.60;24.70;;;;;;10393900;28;20289;-80
2024/01/08 02:30:23;;;;;;;12.70;7.03;;;-6.60;1.50;;;;;;10399123;28;20487;-80
2024/01/08 02:35:45;;;;;;;14.43;7.30;;;-6.50;1.00;;;;;;10413029;28;20196;-80
2024/01/08 02:41:06;;;;;;;14.20;7.23;;;-6.50;1.00;;;;;;10442841;28;20347;-80
2024/01/08 02:46:27;;;;;;;14.23;7.63;;;-6.40;1.00;;;;;;10421850;28;20202;-80
2024/01/08 02:51:49;;;;;;;18.90;8.17;;;-6.40;1.00;;;;;;10438132;28;20425;-80
2024/01/08 02:57:10;;;;;;;14.83;7.90;;;-6.50;1.00;;;;;;10414538;28;20244;-81
2024/01/08 03:02:31;;;;;;;14.13;7.67;;;-6.50;1.00;;;;;;10416639;28;20192;-80
2024/01/08 03:07:52;;;;;;;19.43;8.47;;;-6.60;1.00;;;;;;10424476;28;20208;-81
2024/01/08 03:13:14;;;;;;;21.17;9.80;;;-6.60;1.00;;;;;;10423685;28;20299;-81
2024/01/08 03:18:36;;;;;;;17.83;8.73;;;-6.60;1.00;;;;;;10384533;28;20237;-82
2024/01/08 03:23:58;;;;;;;20.63;9.07;;;-6.70;1.00;;;;;;10385549;28;20451;-82
2024/01/08 03:29:21;;;;;;;136.60;43.10;;;-6.60;1.00;;;;;;10438316;28;20189;-83
2024/01/08 03:34:43;;;;;;;41.47;14.70;;;-6.70;1.00;;;;;;10438027;28;20260;-81
2024/01/08 03:40:06;;;;;;;33.20;11.47;;;-6.80;1.00;;;;;;10437743;28;20223;-81
2024/01/08 03:45:27;;;;;;;29.73;11.00;;;-6.80;1.00;;;;;;10423223;28;20228;-81
2024/01/08 03:50:48;;;;;;;26.90;9.80;;;-6.70;1.00;;;;;;10398679;28;20280;-82
2024/01/08 03:56:10;;;;;;;34.57;11.27;;;-6.60;1.00;;;;;;10422776;28;20243;-82
2024/01/08 04:01:31;;;;;;;45.73;13.60;;;-6.50;1.00;;;;;;10422918;28;20199;-82
2024/01/08 04:06:52;;;;;;;32.37;11.27;;;-6.60;1.00;;;;;;10436355;28;20193;-81
2024/01/08 04:12:13;;;;;;;40.57;12.83;;;-6.60;1.00;;;;;;10434944;28;20219;-79
2024/01/08 04:17:35;;;;;;;49.80;14.20;;;-6.60;1.00;;;;;;10413754;28;20244;-79
2024/01/08 04:22:56;;;;;;;45.53;13.77;;;-6.60;1.00;;;;;;10429687;28;20275;-80
2024/01/08 04:28:20;;;;;;;55.57;13.77;;;-6.60;1.00;;;;;;10412546;28;20207;-82
2024/01/08 04:33:41;;;;;;;63.27;14.73;;;-6.60;1.00;;;;;;10435549;28;20455;-82
2024/01/08 04:39:02;;;;;;;41.10;13.83;;;-6.70;1.00;;;;;;10420635;28;20232;-82
2024/01/08 04:44:24;;;;;;;48.90;11.90;;;-6.80;1.00;;;;;;10388682;28;20247;-80
2024/01/08 04:49:45;;;;;;;31.57;13.63;;;-6.90;1.00;;;;;;10412826;28;20196;-81
2024/01/08 04:55:07;;;;;;;35.03;14.57;;;-6.80;1.00;;;;;;10420869;28;20545;-80
2024/01/08 05:00:29;;;;;;;20.20;9.70;;;-6.70;1.00;;;;;;10434908;28;20223;-79
2024/01/08 05:05:50;;;;;;;27.97;10.53;;;-6.90;1.00;;;;;;10434188;28;20300;-80
2024/01/08 05:11:12;;;;;;;39.40;15.53;;;-7.10;1.00;;;;;;10420609;28;20203;-80
2024/01/08 05:16:34;;;;;;;38.30;16.37;;;-7.00;1.00;;;;;;10433321;28;20259;-79
2024/01/08 05:21:55;;;;;;;36.27;15.53;;;-6.90;1.00;;;;;;10434398;28;20197;-78
2024/01/08 05:27:16;;;;;;;30.90;14.17;;;-6.80;1.00;;;;;;10407988;28;20197;-79
2024/01/08 05:32:38;;;;;;;26.30;12.10;;;-6.80;1.00;;;;;;10379272;28;20260;-79
2024/01/08 05:37:59;;;;;;;22.83;9.40;;;-6.80;1.00;;;;;;10397762;28;20223;-78
2024/01/08 05:43:21;;;;;;;20.43;10.13;;;-6.80;1.00;;;;;;10425470;28;20205;-81
2024/01/08 05:48:42;;;;;;;43.93;15.30;;;-6.90;1.00;;;;;;10417540;28;20487;-80
2024/01/08 05:54:03;;;;;;;74.77;27.27;;;-6.90;1.00;;;;;;10411807;28;20240;-82
2024/01/08 05:59:24;;;;;;;159.40;55.53;;;-6.80;1.00;;;;;;10386291;28;20235;-79
2024/01/08 06:04:45;;;;;;;102.03;36.37;;;-6.80;1.00;;;;;;10386149;28;20363;-80
2024/01/08 06:10:07;;;;;;;152.70;56.03;;;-7.00;1.00;;;;;;10388743;28;20208;-81
2024/01/08 06:15:28;;;;;;;72.03;28.20;;;-6.90;1.00;;;;;;10402641;28;20208;-81
2024/01/08 06:20:52;;;;;;;43.73;17.23;;;-6.80;1.00;;;;;;10385188;28;20231;-81
2024/01/08 06:26:13;;;;;;;41.03;15.30;;;-6.80;1.00;;;;;;10398568;28;20284;-80
2024/01/08 06:31:34;;;;;;;44.30;14.33;;;-6.70;1.00;;;;;;10412482;28;20193;-81
2024/01/08 06:36:55;;;;;;;23.60;10.50;;;-6.70;1.00;;;;;;10398156;28;20222;-82
2024/01/08 06:42:16;;;;;;;42.03;14.20;;;-6.70;1.00;;;;;;10436292;28;20208;-81
2024/01/08 06:47:37;;;;;;;36.23;12.70;;;-6.70;1.00;;;;;;10418518;28;20196;-81
2024/01/08 06:52:59;;;;;;;33.90;13.00;;;-6.70;1.00;;;;;;10425118;28;20295;-81
2024/01/08 06:58:20;;;;;;;35.43;12.43;;;-6.70;1.00;;;;;;10411197;28;20236;-81
2024/01/08 07:03:42;;;;;;;36.17;15.00;;;-6.60;1.00;;;;;;10401086;28;20200;-81
2024/01/08 07:09:03;;;;;;;46.03;17.07;;;-6.60;1.00;;;;;;10410939;28;20189;-80
2024/01/08 07:14:24;;;;;;;55.17;19.90;;;-6.60;1.00;;;;;;10410719;28;20193;-82
2024/01/08 07:19:45;;;;;;;48.87;16.93;;;-6.60;1.00;;;;;;10396815;28;20267;-80
2024/01/08 07:25:07;;;;;;;35.73;16.10;;;-6.40;1.00;;;;;;10410319;28;20194;-78
2024/01/08 07:30:28;;;;;;;37.17;11.63;;;-6.60;1.00;;;;;;10396181;28;20208;-80
2024/01/08 07:35:50;;;;;;;38.80;12.80;;;-6.50;1.00;;;;;;10400343;28;20228;-78
2024/01/08 07:41:12;;;;;;;75.87;20.83;;;-6.60;1.00;;;;;;10426423;28;20213;-80
2024/01/08 07:46:34;;;;;;;48.40;16.90;;;-6.50;1.00;;;;;;10436300;28;20202;-80
2024/01/08 07:51:55;;;;;;;42.67;17.77;;;-6.40;1.00;;;;;;10436358;28;20191;-80
2024/01/08 07:57:16;;;;;;;35.17;15.60;;;-6.40;1.00;;;;;;10397172;28;20275;-80
2024/01/08 08:02:39;;;;;;;35.33;15.43;;;-6.40;1.00;;;;;;10394822;28;20288;-80
2024/01/08 08:08:00;;;;;;;49.27;19.53;;;-6.40;1.00;;;;;;10434841;28;20243;-80
2024/01/08 08:13:22;;;;;;;41.03;15.67;;;-6.30;1.00;;;;;;10435739;28;20200;-80
2024/01/08 08:18:45;;;;;;;44.30;14.83;;;-6.30;1.00;;;;;;10421672;28;20258;-80
2024/01/08 08:24:31;;;;;;;25.00;10.53;;;-6.20;1.00;;;;;;10408151;28;20237;-91
2024/01/08 08:29:52;;;;;;;25.03;12.23;;;-6.10;1.00;;;;;;10414996;28;20212;-80
2024/01/08 08:35:14;;;;;;;24.40;10.93;;;-6.10;1.00;;;;;;10429945;28;20335;-80
2024/01/08 08:40:35;;;;;;;24.87;10.13;;;-5.70;1.00;;;;;;10408013;28;20231;-81
2024/01/08 08:45:57;;;;;;;31.97;13.73;;;-4.10;1.00;;;;;;10426584;28;20449;-80
2024/01/08 08:51:19;;;;;;;30.47;16.80;;;-2.50;1.00;;;;;;10431555;28;20201;-81
2024/01/08 08:56:40;;;;;;;22.83;10.30;;;-1.90;1.00;;;;;;10429906;28;20234;-90
2024/01/08 09:02:01;;;;;;;29.60;10.50;;;-1.80;1.00;;;;;;10416619;28;20204;-86
2024/01/08 09:07:23;;;;;;;43.23;17.93;;;-2.90;1.00;;;;;;10425156;28;20205;-88
2024/01/08 09:12:44;;;;;;;33.70;17.30;;;-3.70;1.00;;;;;;10413646;28;20300;-82
2024/01/08 09:18:06;;;;;;;58.77;23.87;;;-4.00;1.00;;;;;;10443227;28;20270;-81
2024/01/08 09:23:28;;;;;;;30.37;14.17;;;-4.40;1.00;;;;;;10443670;28;20665;-86
2024/01/08 09:28:49;;;;;;;41.93;17.00;;;-4.20;1.00;;;;;;10407425;28;20197;-83
2024/01/08 09:34:10;;;;;;;24.97;12.00;;;-4.50;1.00;;;;;;10415515;28;20228;-88
2024/01/08 09:39:34;;;;;;;35.53;12.20;;;-4.70;1.00;;;;;;10410216;28;20248;-82
2024/01/08 09:44:56;;;;;;;49.87;15.23;;;-4.80;1.00;;;;;;10438410;28;20481;-90
2024/01/08 09:50:18;;;;;;;35.37;13.80;;;-4.80;1.00;;;;;;10452813;28;20197;-87
2024/01/08 09:55:43;;;;;;;88.80;25.67;;;-4.70;1.00;;;;;;10434208;28;20447;-91
2024/01/08 10:01:04;;;;;;;135.70;37.27;;;-4.60;1.00;;;;;;10431918;28;20238;-77
2024/01/08 10:06:28;;;;;;;121.00;36.00;;;-4.70;1.00;;;;;;10407230;28;20247;-80
2024/01/08 10:11:50;;;;;;;54.50;21.73;;;-4.70;1.00;;;;;;10407171;28;20456;-86
2024/01/08 10:17:14;;;;;;;50.70;19.87;;;-4.70;1.00;;;;;;10435563;28;20213;-84
2024/01/08 10:22:36;;;;;;;34.93;14.67;;;-4.60;1.00;;;;;;10419931;28;20236;-82
2024/01/08 10:27:59;;;;;;;23.57;11.83;;;-4.50;1.00;;;;;;10401774;28;20304;-78
2024/01/08 10:33:20;;;;;;;19.00;8.27;;;-4.40;1.00;;;;;;10394687;28;20455;-81
2024/01/08 10:38:43;;;;;;;21.03;9.47;;;-4.50;1.00;;;;;;10433818;28;20228;-80
2024/01/08 10:44:04;;;;;;;14.80;7.33;;;-4.40;1.00;;;;;;10434885;28;20201;-80
2024/01/08 10:49:33;;;;;;;10.43;5.30;;;-4.30;1.00;;;;;;10416490;28;20269;-81
2024/01/08 10:54:57;;;;;;;16.93;7.37;;;-4.30;1.00;;;;;;10433217;28;20247;-82
2024/01/08 11:00:19;;;;;;;68.30;18.50;;;-4.30;1.00;;;;;;10419139;28;20240;-80
2024/01/08 11:05:51;;;;;;;106.03;29.53;;;-4.30;1.00;;;;;;10427106;28;20219;-83
2024/01/08 11:11:15;;;;;;;119.87;27.33;;;-4.20;1.00;;;;;;10421255;28;20425;-84
2024/01/08 11:16:37;;;;;;;84.53;25.30;;;-3.90;1.00;;;;;;10416951;28;20320;-87
2024/01/08 11:22:12;;;;;;;88.93;27.00;;;-3.20;1.00;;;;;;10420462;28;20286;-86
2024/01/08 11:27:34;;;;;;;28.50;13.57;;;-0.60;1.00;;;;;;10378610;28;20557;-79
2024/01/08 11:33:20;;;;;;;24.40;10.80;;;1.60;1.00;;;;;;10431009;28;20304;-90
2024/01/08 11:39:02;;;;;;;42.50;17.57;;;2.70;1.00;;;;;;10430799;28;20253;-80
2024/01/08 11:44:23;;;;;;;75.30;28.10;;;3.60;1.00;;;;;;10389912;28;20207;-80
2024/01/08 11:49:45;;;;;;;68.23;27.97;;;;;;;;;;10401107;28;20505;-81
2024/01/08 11:55:08;;;;;;;29.37;13.30;;;4.40;99.90;;;;;;10418438;28;20564;-80
2024/01/08 12:00:30;;;;;;;31.90;14.67;;;4.70;99.90;;;;;;10403659;28;20238;-80
2024/01/08 12:06:07;;;;;;;30.73;16.33;;;4.80;99.90;;;;;;10430296;28;20238;-79
2024/01/08 12:11:28;;;;;;;19.47;11.23;;;4.60;99.90;;;;;;10407510;28;20206;-79
2024/01/08 12:16:50;;;;;;;24.43;13.13;;;5.90;99.90;;;;;;10430831;28;20201;-81
2024/01/08 12:22:14;;;;;;;16.03;8.90;;;5.50;99.90;;;;;;10431336;28;20432;-86
2024/01/08 12:27:37;;;;;;;20.93;9.90;;;3.70;99.90;;;;;;10389400;28;20204;-82
2024/01/08 12:32:58;;;;;;;56.03;22.80;;;1.70;99.90;;;;;;10392904;28;20210;-78
2024/01/08 12:38:20;;;;;;;21.77;9.17;;;0.70;99.90;;;;;;10400860;28;20216;-86
2024/01/08 12:43:43;;;;;;;14.57;7.80;;;0.00;99.90;;;;;;10415450;28;20207;-80
2024/01/08 12:49:05;;;;;;;17.07;8.73;;;-0.50;1.00;;;;;;10397945;28;20282;-78
2024/01/08 12:54:47;;;;;;;16.00;8.90;;;-1.10;99.90;;;;;;10431569;28;20435;-81
2024/01/08 13:00:13;;;;;;;18.90;9.57;;;-1.10;99.90;;;;;;10417400;28;20573;-81
2024/01/08 13:05:35;;;;;;;15.80;7.77;;;-1.50;99.90;;;;;;10419136;28;20558;-79
2024/01/08 13:10:56;;;;;;;25.17;10.60;;;-1.70;99.90;;;;;;10437917;28;20207;-81
2024/01/08 13:16:18;;;;;;;25.70;10.53;;;-1.70;99.90;;;;;;10422540;28;20187;-82
2024/01/08 13:21:41;;;;;;;44.80;20.97;;;-1.90;1.00;;;;;;10437028;28;20408;-79
2024/01/08 13:27:03;;;;;;;60.93;27.83;;;-2.20;99.90;;;;;;10369600;28;20223;-82
2024/01/08 13:32:25;;;;;;;49.50;22.30;;;-2.20;99.90;;;;;;10419952;28;20213;-80
2024/01/08 13:37:47;;;;;;;48.77;20.23;;;-2.20;99.90;;;;;;10412387;28;20228;-79
2024/01/08 13:43:09;;;;;;;58.33;26.50;;;-2.20;99.90;;;;;;10452347;28;20211;-79
2024/01/08 13:48:30;;;;;;;29.87;14.30;;;-2.20;99.90;;;;;;10408377;28;20229;-80
2024/01/08 13:53:53;;;;;;;36.40;18.53;;;-2.40;1.00;;;;;;10421447;28;20244;-80
2024/01/08 13:59:15;;;;;;;34.90;18.53;;;-2.50;99.90;;;;;;10419484;28;20475;-80
2024/01/08 14:04:36;;;;;;;39.30;18.13;;;-2.70;99.90;;;;;;10391878;28;20214;-82
2024/01/08 14:09:57;;;;;;;36.37;17.97;;;-2.80;99.90;;;;;;10394506;28;20467;-79
2024/01/08 14:15:19;;;;;;;35.20;16.23;;;-2.90;99.90;;;;;;10392346;28;20196;-79
2024/01/08 14:20:42;;;;;;;32.60;15.70;;;-3.10;99.90;;;;;;10404359;28;20282;-80
2024/01/08 14:26:03;;;;;;;23.57;10.97;;;-3.10;1.00;;;;;;10431576;28;20196;-79
2024/01/08 14:31:25;;;;;;;25.00;11.23;;;-3.30;1.00;;;;;;10431393;28;20202;-82
2024/01/08 14:36:52;;;;;;;26.53;12.27;;;-3.50;1.00;;;;;;10425579;28;20208;-79
2024/01/08 14:42:13;;;;;;;51.07;19.13;;;-3.60;1.00;;;;;;10416299;28;20350;-77
2024/01/08 14:47:34;;;;;;;74.30;28.50;;;-3.60;1.00;;;;;;10433110;28;20377;-78
2024/01/08 14:52:56;;;;;;;60.43;26.97;;;-3.60;1.00;;;;;;10388150;28;1263381;-79
2024/01/08 14:58:17;;;;;;;78.27;32.00;;;-3.60;1.00;;;;;;10423322;28;20266;-84
2024/01/08 15:03:43;;;;;;;56.40;26.13;;;-3.60;1.00;;;;;;10422500;28;20341;-84
2024/01/08 15:09:10;;;;;;;85.07;38.10;;;-3.70;1.00;;;;;;10379815;28;20583;-81
2024/01/08 15:14:31;;;;;;;134.63;60.07;;;-3.70;1.00;;;;;;10394775;28;20539;-79
2024/01/08 15:19:53;;;;;;;207.60;90.17;;;-3.80;1.00;;;;;;10392819;28;20552;-86
2024/01/08 15:25:15;;;;;;;225.67;87.40;;;-3.90;1.00;;;;;;10368590;28;20297;-78
2024/01/08 15:30:36;;;;;;;247.67;102.13;;;-3.90;1.00;;;;;;10392391;28;20283;-80
2024/01/08 15:35:57;;;;;;;300.00;113.80;;;-4.00;1.00;;;;;;10439373;28;20242;-80
2024/01/08 15:41:19;;;;;;;322.80;115.87;;;-4.00;1.00;;;;;;10432847;28;20228;-80
2024/01/08 15:46:43;;;;;;;430.47;147.43;;;-4.10;1.00;;;;;;10417837;28;20199;-80
2024/01/08 15:52:05;;;;;;;485.23;166.03;;;-4.20;1.00;;;;;;10421220;28;20219;-79
2024/01/08 15:57:26;;;;;;;441.93;159.73;;;-4.40;1.00;;;;;;10408939;28;20311;-82
2024/01/08 16:02:48;;;;;;;432.27;154.43;;;-4.40;1.00;;;;;;10398077;28;20207;-84
2024/01/08 16:08:09;;;;;;;377.77;145.87;;;-4.40;1.00;;;;;;10393725;28;20208;-81
2024/01/08 16:13:30;;;;;;;374.20;145.77;;;-4.50;1.00;;;;;;10434537;28;20429;-80
2024/01/08 16:18:52;;;;;;;347.93;140.90;;;-4.60;1.00;;;;;;10415404;28;20274;-80
2024/01/08 16:24:13;;;;;;;323.07;132.17;;;-4.60;1.00;;;;;;10395230;28;20188;-79
2024/01/08 16:29:34;;;;;;;361.87;147.10;;;-4.70;1.00;;;;;;10395291;28;20203;-80
2024/01/08 16:34:57;;;;;;;434.30;159.23;;;-4.80;1.00;;;;;;10396114;28;20376;-79
2024/01/08 16:40:19;;;;;;;375.47;140.90;;;-4.90;1.00;;;;;;10404829;28;20556;-81
2024/01/08 16:45:40;;;;;;;258.67;108.57;;;-5.00;1.00;;;;;;10436074;28;20214;-80
2024/01/08 16:51:06;;;;;;;225.80;92.03;;;-5.00;1.00;;;;;;10436086;28;20378;-80
2024/01/08 16:56:28;;;;;;;252.57;106.07;;;-5.00;1.00;;;;;;10436971;28;20255;-80
2024/01/08 17:01:50;;;;;;;283.60;116.80;;;-5.00;1.00;;;;;;10417111;28;20300;-79
2024/01/08 17:07:12;;;;;;;257.73;94.07;;;-5.00;1.00;;;;;;10413729;28;20266;-80
2024/01/08 17:12:34;;;;;;;152.23;59.70;;;-5.00;1.00;;;;;;10447816;28;20253;-79
2024/01/08 17:17:57;;;;;;;96.37;40.90;;;-5.00;1.00;;;;;;10448352;28;20193;-79
2024/01/08 17:23:19;;;;;;;95.47;43.50;;;-4.90;1.00;;;;;;10462039;28;20249;-80
2024/01/08 17:28:40;;;;;;;125.17;56.87;;;-5.00;1.00;;;;;;10448033;28;20206;-79
2024/01/08 17:34:03;;;;;;;239.77;107.60;;;-5.00;1.00;;;;;;10416952;28;20238;-79
2024/01/08 17:39:25;;;;;;;291.50;124.27;;;-5.00;1.00;;;;;;10420541;28;20246;-80
2024/01/08 17:44:47;;;;;;;307.03;123.07;;;-5.00;1.00;;;;;;10420531;28;20192;-80
2024/01/08 17:50:09;;;;;;;302.63;116.13;;;-5.00;1.00;;;;;;10440320;28;20474;-79
2024/01/08 17:55:32;;;;;;;279.37;107.20;;;-5.10;1.00;;;;;;10441774;28;20464;-79
2024/01/08 18:00:54;;;;;;;261.13;101.97;;;-5.40;1.00;;;;;;10428947;28;20278;-81
2024/01/08 18:06:16;;;;;;;257.27;106.17;;;-5.50;1.00;;;;;;10414264;28;20201;-79
2024/01/08 18:11:37;;;;;;;249.10;103.30;;;-5.60;1.00;;;;;;10403464;28;20279;-79
2024/01/08 18:16:59;;;;;;;251.40;101.97;;;-5.60;1.00;;;;;;10400068;28;20222;-79
2024/01/08 18:22:20;;;;;;;226.03;98.23;;;-5.60;1.00;;;;;;10385865;28;20249;-83
2024/01/08 18:27:42;;;;;;;236.80;92.53;;;-5.70;1.00;;;;;;10399397;28;20197;-79
2024/01/08 18:33:03;;;;;;;212.90;90.60;;;-5.80;1.00;;;;;;10416765;28;20242;-79
2024/01/08 18:38:24;;;;;;;267.37;104.00;;;-6.10;1.00;;;;;;10407699;28;20228;-80
2024/01/08 18:43:46;;;;;;;303.37;112.43;;;-6.00;1.00;;;;;;10412736;28;20441;-79
2024/01/08 18:49:07;;;;;;;302.70;116.30;;;-6.00;1.00;;;;;;10436027;28;20336;-80
2024/01/08 18:54:28;;;;;;;313.60;120.53;;;-6.10;1.00;;;;;;10416134;28;20308;-79
2024/01/08 18:59:50;;;;;;;316.57;119.40;;;-6.00;1.00;;;;;;10438162;28;20410;-79
2024/01/08 19:05:13;;;;;;;314.57;116.47;;;-6.10;1.00;;;;;;10389634;28;20291;-79
2024/01/08 19:10:37;;;;;;;347.73;130.90;;;-6.10;1.00;;;;;;10397784;28;20207;-79
2024/01/08 19:15:58;;;;;;;393.27;145.77;;;-6.20;1.00;;;;;;10411609;28;20535;-79
2024/01/08 19:21:20;;;;;;;455.43;170.47;;;-6.20;1.00;;;;;;10397431;28;20304;-83
2024/01/08 19:26:41;;;;;;;416.93;160.60;;;-6.20;1.00;;;;;;10387753;28;20276;-83
2024/01/08 19:32:03;;;;;;;322.17;132.97;;;-6.30;1.00;;;;;;10383828;28;20389;-81
2024/01/08 19:37:24;;;;;;;308.87;125.13;;;-6.40;1.00;;;;;;10397356;28;20198;-79
2024/01/08 19:42:45;;;;;;;287.90;118.87;;;-6.40;1.00;;;;;;10427242;28;20389;-79
2024/01/08 19:48:06;;;;;;;309.17;121.53;;;-6.60;1.00;;;;;;10423894;28;20189;-79
2024/01/08 19:53:28;;;;;;;316.97;123.27;;;-6.70;1.00;;;;;;10399923;28;20242;-82
2024/01/08 19:58:49;;;;;;;285.80;114.97;;;-6.70;1.00;;;;;;10413478;28;20224;-83
2024/01/08 20:04:11;;;;;;;316.30;122.53;;;-6.70;1.00;;;;;;10414114;28;20284;-83
2024/01/08 20:09:32;;;;;;;374.40;139.87;;;-6.70;1.00;;;;;;10411383;28;20196;-82
2024/01/08 20:14:54;;;;;;;422.40;157.87;;;-6.80;1.00;;;;;;10420984;28;20205;-83
2024/01/08 20:20:15;;;;;;;275.77;109.23;;;-6.70;1.00;;;;;;10381819;28;20235;-84
2024/01/08 20:25:37;;;;;;;254.37;97.70;;;-6.70;1.00;;;;;;10385614;28;20401;-81
2024/01/08 20:30:58;;;;;;;232.10;89.10;;;-6.80;1.00;;;;;;10419428;28;20243;-79
2024/01/08 20:36:21;;;;;;;223.43;86.83;;;-6.80;1.00;;;;;;10421138;28;20384;-78
2024/01/08 20:41:42;;;;;;;239.17;91.63;;;-6.90;1.00;;;;;;10438189;28;20232;-82
2024/01/08 20:47:03;;;;;;;278.43;111.07;;;-6.90;1.00;;;;;;10419885;28;20197;-83
2024/01/08 20:52:25;;;;;;;287.13;110.63;;;-7.20;1.00;;;;;;10402200;28;20390;-79
2024/01/08 20:57:46;;;;;;;277.63;110.53;;;-7.20;1.00;;;;;;10428659;28;20275;-81
2024/01/08 21:03:07;;;;;;;266.17;106.20;;;-7.30;1.00;;;;;;10435142;28;20219;-80
2024/01/08 21:08:30;;;;;;;264.87;107.00;;;-7.50;1.00;;;;;;10435312;28;20238;-81
2024/01/08 21:13:53;;;;;;;277.23;104.70;;;-7.50;1.00;;;;;;10409890;28;20219;-80
2024/01/08 21:19:15;;;;;;;300.63;115.33;;;-7.50;1.00;;;;;;10416159;28;20543;-80
2024/01/08 21:24:36;;;;;;;273.73;106.30;;;-7.40;1.00;;;;;;10402795;28;20280;-79
2024/01/08 21:29:58;;;;;;;260.63;102.57;;;-7.50;1.00;;;;;;10402206;28;20201;-79
2024/01/08 21:35:19;;;;;;;277.57;108.13;;;-7.50;1.00;;;;;;10405229;28;20204;-80
2024/01/08 21:40:41;;;;;;;309.63;119.17;;;-7.60;1.00;;;;;;10428728;28;20297;-80
2024/01/08 21:46:02;;;;;;;331.60;119.20;;;-7.80;1.00;;;;;;10414436;28;20219;-79
2024/01/08 21:51:24;;;;;;;412.83;126.90;;;-7.80;1.00;;;;;;10442241;28;20283;-81
2024/01/08 21:56:46;;;;;;;573.73;156.17;;;-7.70;1.00;;;;;;10441800;28;20538;-79
2024/01/08 22:02:07;;;;;;;518.90;139.87;;;-7.60;1.00;;;;;;10432788;28;20225;-80
2024/01/08 22:07:29;;;;;;;451.10;128.87;;;-7.70;1.00;;;;;;10400543;28;20500;-82
2024/01/08 22:12:50;;;;;;;431.37;129.27;;;-7.70;1.00;;;;;;10386349;28;20201;-79
2024/01/08 22:18:11;;;;;;;378.50;120.40;;;-7.70;1.00;;;;;;10400734;28;20376;-82
2024/01/08 22:23:32;;;;;;;350.67;111.27;;;-7.90;1.00;;;;;;10388417;28;20409;-82
2024/01/08 22:28:54;;;;;;;392.23;126.20;;;-7.90;1.00;;;;;;10386061;28;20492;-82
2024/01/08 22:34:15;;;;;;;399.60;133.80;;;-8.00;1.00;;;;;;10399337;28;20200;-79
2024/01/08 22:39:37;;;;;;;383.30;129.07;;;-8.10;1.00;;;;;;10416768;28;20223;-80
2024/01/08 22:44:58;;;;;;;362.83;120.27;;;-8.10;1.00;;;;;;10425944;28;20196;-79
2024/01/08 22:50:19;;;;;;;318.17;105.43;;;-8.00;1.00;;;;;;10425753;28;20201;-79
2024/01/08 22:55:41;;;;;;;287.23;101.80;;;-8.00;1.00;;;;;;10422734;28;20237;-79
2024/01/08 23:01:02;;;;;;;300.23;101.27;;;-7.90;1.00;;;;;;10384603;28;20228;-79
2024/01/08 23:06:24;;;;;;;266.77;93.73;;;-7.80;1.00;;;;;;10415639;28;20239;-78
2024/01/08 23:11:45;;;;;;;261.23;94.33;;;-7.80;1.00;;;;;;10370578;28;20197;-81
2024/01/08 23:17:06;;;;;;;363.77;117.00;;;-7.80;1.00;;;;;;10414439;28;20239;-79
2024/01/08 23:22:28;;;;;;;432.40;143.70;;;-8.00;1.00;;;;;;10383720;28;20227;-81
2024/01/08 23:27:49;;;;;;;444.50;143.47;;;-8.20;1.00;;;;;;10434218;28;20391;-79
2024/01/08 23:33:10;;;;;;;367.10;130.83;;;-8.20;1.00;;;;;;10424501;28;20202;-79
2024/01/08 23:38:32;;;;;;;427.23;138.50;;;-8.20;1.00;;;;;;10423718;28;20243;-79
2024/01/08 23:43:53;;;;;;;462.23;149.43;;;-8.10;1.00;;;;;;10423698;28;20199;-79
2024/01/08 23:49:16;;;;;;;403.00;132.83;;;-8.10;1.00;;;;;;10437910;28;20263;-80
2024/01/08 23:54:38;;;;;;;300.33;109.30;;;-8.20;1.00;;;;;;10413632;28;20252;-81
